Time;durP1;ratioP1;P1;durP2;ratioP2;P2;SDS_P1;SDS_P2;PMS_P1;PMS_P2;Temp;Humidity;BMP_temperature;BMP_pressure;BME280_temperature;BME280_humidity;BME280_pressure;Samples;Min_cycle;Max_cycle;Signal;HPM_P1;HPM_P2
2023/06/28 03:02:21;;;;;;;1.15;0.50;;;25.50;42.00;;;;;;5094364;23;45463;-60
2023/06/28 03:04:46;;;;;;;1.92;0.80;;;25.40;41.80;;;;;;4969904;28;46019;-59
2023/06/28 03:07:13;;;;;;;0.95;0.65;;;25.40;41.80;;;;;;4970282;28;45262;-59
2023/06/28 03:09:39;;;;;;;1.20;0.70;;;25.40;41.70;;;;;;4978541;28;44959;-56
2023/06/28 03:12:05;;;;;;;1.40;0.68;;;25.40;41.80;;;;;;4964493;28;45415;-57
2023/06/28 03:14:31;;;;;;;1.38;0.60;;;25.40;41.80;;;;;;4989313;28;47069;-58
2023/06/28 03:16:56;;;;;;;1.50;0.60;;;25.40;41.70;;;;;;4977568;28;45286;-58
2023/06/28 03:19:22;;;;;;;1.52;0.70;;;25.40;41.70;;;;;;4990311;28;45469;-59
2023/06/28 03:21:48;;;;;;;1.27;0.75;;;25.40;41.80;;;;;;4983011;28;45477;-59
2023/06/28 03:24:13;;;;;;;1.35;0.70;;;25.40;41.80;;;;;;4948195;28;46013;-57
2023/06/28 03:26:39;;;;;;;1.80;0.80;;;25.40;41.80;;;;;;4981810;28;46110;-59
2023/06/28 03:29:04;;;;;;;0.70;0.63;;;25.40;41.80;;;;;;4969509;28;45211;-58
2023/06/28 03:31:31;;;;;;;2.58;0.73;;;25.40;41.90;;;;;;4959467;28;45819;-59
2023/06/28 03:33:57;;;;;;;2.47;0.77;;;25.40;41.90;;;;;;4985612;28;46160;-58
2023/06/28 03:36:24;;;;;;;2.85;0.60;;;25.40;41.90;;;;;;4968686;28;45630;-57
2023/06/28 03:38:50;;;;;;;0.65;0.55;;;25.40;41.90;;;;;;4990492;28;45598;-59
2023/06/28 03:41:15;;;;;;;1.35;0.70;;;25.40;41.90;;;;;;4984619;28;46502;-57
2023/06/28 03:43:41;;;;;;;1.67;0.82;;;25.40;42.00;;;;;;4987005;28;45653;-58
2023/06/28 03:46:06;;;;;;;1.60;0.75;;;25.40;42.00;;;;;;4980546;28;45310;-58
2023/06/28 03:48:32;;;;;;;0.95;0.70;;;25.40;42.00;;;;;;4970134;28;45330;-58
2023/06/28 03:50:57;;;;;;;2.40;0.77;;;25.40;42.00;;;;;;4966961;28;45277;-58
2023/06/28 03:53:23;;;;;;;1.52;0.60;;;25.40;42.00;;;;;;4986943;28;47061;-57
2023/06/28 03:55:48;;;;;;;0.60;0.60;;;25.40;42.10;;;;;;4987179;28;45139;-57
2023/06/28 03:58:14;;;;;;;2.75;0.77;;;25.40;42.00;;;;;;4991412;28;44653;-58
2023/06/28 04:00:41;;;;;;;1.65;1.00;;;25.40;42.10;;;;;;4979456;28;46879;-59
2023/06/28 04:03:07;;;;;;;0.88;0.60;;;25.40;42.10;;;;;;4955598;28;47247;-59
2023/06/28 04:05:32;;;;;;;5.57;0.75;;;25.40;42.10;;;;;;4981384;28;45217;-60
2023/06/28 04:07:58;;;;;;;2.20;0.80;;;25.40;42.20;;;;;;4983435;28;44907;-58
2023/06/28 04:10:25;;;;;;;1.67;0.63;;;25.40;42.20;;;;;;4986899;28;45530;-58
2023/06/28 04:12:50;;;;;;;1.98;0.70;;;25.40;42.20;;;;;;4985198;28;46203;-59
2023/06/28 04:15:16;;;;;;;1.27;0.88;;;25.40;42.20;;;;;;4962843;28;45290;-58
2023/06/28 04:17:42;;;;;;;1.13;0.80;;;25.40;42.30;;;;;;4948125;28;45392;-57
2023/06/28 04:20:08;;;;;;;3.97;0.77;;;25.40;42.30;;;;;;4983404;28;45806;-59
2023/06/28 04:22:33;;;;;;;1.73;0.85;;;25.40;42.40;;;;;;4985380;28;45529;-59
2023/06/28 04:24:59;;;;;;;2.60;1.63;;;25.40;42.50;;;;;;4970816;28;45152;-59
2023/06/28 04:27:25;;;;;;;6.78;4.30;;;25.40;42.50;;;;;;4982265;28;45867;-60
2023/06/28 04:29:51;;;;;;;10.43;5.55;;;25.40;42.50;;;;;;4985489;28;45973;-62
2023/06/28 04:32:25;;;;;;;8.90;5.50;;;25.30;42.50;;;;;;4963351;28;46954;-58
2023/06/28 04:34:52;;;;;;;6.70;4.25;;;25.30;42.80;;;;;;4985787;28;45454;-58
2023/06/28 04:37:22;;;;;;;5.68;4.25;;;25.30;42.60;;;;;;4966962;28;45441;-56
2023/06/28 04:39:48;;;;;;;5.13;3.70;;;25.30;42.60;;;;;;4965854;28;45539;-59
2023/06/28 04:42:14;;;;;;;4.38;3.00;;;25.30;42.50;;;;;;4980745;28;46186;-59
2023/06/28 04:44:43;;;;;;;5.30;3.47;;;25.30;42.50;;;;;;4969579;28;45271;-57
2023/06/28 04:47:09;;;;;;;4.50;2.95;;;25.30;42.60;;;;;;4975942;28;45258;-56
2023/06/28 04:49:35;;;;;;;3.95;2.95;;;25.40;42.60;;;;;;4985821;28;45334;-56
2023/06/28 04:52:01;;;;;;;6.10;2.95;;;25.40;42.60;;;;;;4980758;28;45345;-57
2023/06/28 04:54:26;;;;;;;3.45;2.75;;;25.40;42.60;;;;;;4983730;28;46607;-55
2023/06/28 04:56:52;;;;;;;3.42;2.38;;;25.40;42.70;;;;;;4979892;28;45312;-59
2023/06/28 04:59:17;;;;;;;3.58;2.65;;;25.40;42.70;;;;;;4989945;28;45386;-57
2023/06/28 05:01:43;;;;;;;3.90;2.17;;;25.40;42.80;;;;;;4973151;28;47168;-56
2023/06/28 05:04:08;;;;;;;5.60;2.03;;;25.40;42.70;;;;;;4982999;28;45268;-57
2023/06/28 05:06:35;;;;;;;4.35;1.73;;;25.40;42.80;;;;;;4981871;28;45582;-57
2023/06/28 05:09:02;;;;;;;2.83;1.90;;;25.40;42.90;;;;;;4986996;28;45472;-57
2023/06/28 05:11:27;;;;;;;2.65;1.60;;;25.40;42.90;;;;;;4984149;28;46271;-56
2023/06/28 05:13:53;;;;;;;2.70;1.73;;;25.40;42.90;;;;;;4987582;28;45009;-55
2023/06/28 05:16:18;;;;;;;2.92;1.65;;;25.40;43.00;;;;;;4974804;28;45339;-55
2023/06/28 05:18:44;;;;;;;3.67;1.30;;;25.40;43.00;;;;;;4983799;28;44984;-57
2023/06/28 05:21:09;;;;;;;3.15;1.75;;;25.30;43.00;;;;;;4976848;28;46010;-57
2023/06/28 05:23:35;;;;;;;4.97;1.70;;;25.30;42.90;;;;;;4968038;28;45375;-55
2023/06/28 05:26:01;;;;;;;3.15;1.60;;;25.30;42.90;;;;;;4980213;28;45653;-57
2023/06/28 05:28:26;;;;;;;2.53;1.48;;;25.30;42.80;;;;;;4974056;28;45325;-57
2023/06/28 05:30:52;;;;;;;2.85;1.45;;;25.40;42.90;;;;;;4976773;28;45177;-59
2023/06/28 05:33:17;;;;;;;4.70;1.30;;;25.30;42.80;;;;;;4986103;28;45350;-58
2023/06/28 05:35:43;;;;;;;2.10;1.05;;;25.40;42.90;;;;;;4985789;28;45183;-58
2023/06/28 05:38:08;;;;;;;2.05;1.05;;;25.40;42.90;;;;;;4984521;28;44781;-57
2023/06/28 05:40:34;;;;;;;1.48;1.08;;;25.30;42.80;;;;;;4982130;28;46018;-57
2023/06/28 05:43:00;;;;;;;2.15;0.93;;;25.30;42.80;;;;;;4991555;28;45027;-57
2023/06/28 05:45:26;;;;;;;3.30;1.40;;;25.30;42.80;;;;;;4983131;28;45304;-55
2023/06/28 05:47:52;;;;;;;2.47;1.10;;;25.30;42.80;;;;;;4971491;28;46060;-55
2023/06/28 05:50:18;;;;;;;2.45;1.00;;;25.40;42.90;;;;;;4982713;28;45692;-58
2023/06/28 05:52:44;;;;;;;1.20;1.10;;;25.40;42.90;;;;;;4985768;28;44690;-56
2023/06/28 05:55:09;;;;;;;3.92;1.15;;;25.40;42.80;;;;;;4985087;28;45242;-57
2023/06/28 05:57:35;;;;;;;3.00;1.05;;;25.40;42.80;;;;;;4985366;28;45515;-56
2023/06/28 06:00:05;;;;;;;1.80;1.08;;;25.40;42.80;;;;;;4984336;28;45550;-57
2023/06/28 06:02:30;;;;;;;0.80;0.80;;;25.40;42.80;;;;;;4979380;28;46119;-57
2023/06/28 06:04:57;;;;;;;1.80;1.00;;;25.40;42.70;;;;;;4982874;28;45605;-58
2023/06/28 06:07:23;;;;;;;1.65;1.00;;;25.40;42.70;;;;;;4981628;28;45403;-54
2023/06/28 06:09:48;;;;;;;1.50;0.98;;;25.40;42.70;;;;;;4983489;28;46328;-54
2023/06/28 06:12:14;;;;;;;3.17;1.17;;;25.40;42.60;;;;;;4979732;28;44953;-55
2023/06/28 06:14:40;;;;;;;1.65;1.10;;;25.40;42.60;;;;;;4987780;28;45486;-56
2023/06/28 06:17:05;;;;;;;2.67;1.50;;;25.40;42.60;;;;;;4978545;28;45393;-56
2023/06/28 06:19:31;;;;;;;2.22;1.00;;;25.40;42.60;;;;;;4987804;28;45542;-61
2023/06/28 06:21:56;;;;;;;2.50;1.00;;;25.40;42.60;;;;;;4982670;28;45520;-56
2023/06/28 06:24:22;;;;;;;4.35;0.90;;;25.50;42.60;;;;;;4992250;28;44983;-56
2023/06/28 06:26:47;;;;;;;1.33;0.80;;;25.50;42.60;;;;;;4985556;28;45600;-55
2023/06/28 06:29:13;;;;;;;3.13;1.10;;;25.50;42.60;;;;;;4989627;28;46040;-57
2023/06/28 06:31:38;;;;;;;5.38;0.90;;;25.50;42.60;;;;;;4951415;28;45512;-54
2023/06/28 06:34:04;;;;;;;2.58;1.08;;;25.50;42.50;;;;;;4989243;28;45417;-57
2023/06/28 06:36:30;;;;;;;1.30;0.80;;;25.60;42.40;;;;;;4985556;28;44870;-54
2023/06/28 06:38:56;;;;;;;4.90;1.00;;;25.60;42.30;;;;;;4989481;28;45975;-58
2023/06/28 06:41:22;;;;;;;3.35;1.10;;;25.60;42.30;;;;;;4984726;28;44939;-56
2023/06/28 06:43:47;;;;;;;1.83;1.20;;;25.70;42.30;;;;;;4986466;28;44658;-56
2023/06/28 06:46:13;;;;;;;5.85;1.13;;;25.70;42.20;;;;;;4982218;28;45652;-56
2023/06/28 06:48:39;;;;;;;3.08;1.00;;;25.70;42.20;;;;;;4987271;28;45971;-56
2023/06/28 06:51:05;;;;;;;2.15;1.08;;;25.60;42.20;;;;;;4984528;28;45353;-55
2023/06/28 06:53:31;;;;;;;1.90;1.00;;;25.60;42.20;;;;;;4992016;28;45014;-57
2023/06/28 06:55:56;;;;;;;1.83;0.93;;;25.70;42.20;;;;;;4984123;28;46498;-56
2023/06/28 06:58:23;;;;;;;3.70;1.00;;;25.70;42.10;;;;;;4986631;28;45978;-54
2023/06/28 07:00:49;;;;;;;1.85;1.00;;;25.70;42.00;;;;;;4978689;28;45155;-56
2023/06/28 07:03:14;;;;;;;4.80;1.40;;;25.80;41.90;;;;;;4989023;28;45169;-58
2023/06/28 07:05:40;;;;;;;3.55;1.17;;;25.80;41.90;;;;;;4980087;28;45238;-55
2023/06/28 07:08:05;;;;;;;2.45;1.27;;;25.80;41.80;;;;;;4986559;28;46147;-56
2023/06/28 07:10:31;;;;;;;1.63;0.90;;;25.80;41.70;;;;;;4986878;28;44986;-57
2023/06/28 07:12:57;;;;;;;1.00;0.85;;;25.70;41.60;;;;;;4987828;28;45862;-56
2023/06/28 07:15:22;;;;;;;2.85;1.20;;;25.80;41.50;;;;;;4981224;23;45526;-56
2023/06/28 07:17:48;;;;;;;1.88;1.10;;;25.80;41.40;;;;;;4990865;28;46134;-59
2023/06/28 07:20:13;;;;;;;2.30;1.33;;;25.80;41.30;;;;;;4988762;28;44917;-55
2023/06/28 07:22:39;;;;;;;2.63;1.10;;;25.80;41.20;;;;;;4971222;28;45211;-54
2023/06/28 07:25:05;;;;;;;1.83;0.93;;;25.90;41.00;;;;;;4988718;28;45496;-61
2023/06/28 07:27:30;;;;;;;1.25;0.70;;;25.90;40.80;;;;;;4989115;28;46770;-57
2023/06/28 07:29:56;;;;;;;2.72;0.90;;;26.00;40.80;;;;;;4990294;28;44996;-58
2023/06/28 07:32:22;;;;;;;2.00;1.00;;;26.00;40.60;;;;;;4986797;23;45194;-56
2023/06/28 07:34:47;;;;;;;1.98;0.90;;;26.10;40.30;;;;;;4972361;28;45135;-57
2023/06/28 07:37:13;;;;;;;1.60;0.85;;;26.10;40.20;;;;;;4982286;28;45613;-58
2023/06/28 07:39:38;;;;;;;2.25;0.90;;;26.10;40.20;;;;;;4988442;28;44703;-57
2023/06/28 07:42:04;;;;;;;2.70;0.80;;;26.10;40.20;;;;;;4984823;28;45568;-59
2023/06/28 07:44:29;;;;;;;2.30;0.73;;;26.10;39.90;;;;;;4984750;28;45693;-57
2023/06/28 07:46:55;;;;;;;1.45;0.90;;;26.10;39.70;;;;;;4977110;28;45341;-56
2023/06/28 07:49:20;;;;;;;2.50;1.13;;;26.00;39.40;;;;;;4987423;28;45559;-56
2023/06/28 07:51:47;;;;;;;1.50;0.90;;;26.00;39.10;;;;;;4983621;28;46113;-57
2023/06/28 07:54:12;;;;;;;2.58;0.82;;;25.90;38.80;;;;;;4989168;28;44969;-57
2023/06/28 07:56:38;;;;;;;3.20;0.98;;;25.90;38.80;;;;;;4987254;28;45928;-55
2023/06/28 07:59:05;;;;;;;3.85;0.90;;;25.90;38.70;;;;;;4992827;28;44972;-55
2023/06/28 08:01:33;;;;;;;1.50;1.10;;;25.90;38.70;;;;;;4968417;28;44674;-55
2023/06/28 08:03:59;;;;;;;3.25;1.23;;;25.90;38.80;;;;;;4987624;28;45515;-57
2023/06/28 08:06:25;;;;;;;4.07;1.10;;;25.90;39.00;;;;;;4983875;28;46084;-55
2023/06/28 08:08:50;;;;;;;2.92;1.23;;;25.90;39.10;;;;;;4971481;28;45308;-56
2023/06/28 08:11:16;;;;;;;3.40;0.98;;;25.90;39.20;;;;;;4977814;28;45386;-56
2023/06/28 08:13:42;;;;;;;1.98;1.05;;;25.90;39.20;;;;;;4992141;28;47217;-55
2023/06/28 08:16:09;;;;;;;2.20;1.10;;;25.90;39.20;;;;;;4982084;28;46088;-55
2023/06/28 08:18:35;;;;;;;3.80;1.27;;;25.90;39.30;;;;;;4984902;28;44683;-57
2023/06/28 08:21:00;;;;;;;2.80;1.20;;;25.90;39.30;;;;;;4984438;28;45633;-57
2023/06/28 08:23:26;;;;;;;2.00;1.15;;;26.00;39.50;;;;;;4991402;28;44812;-58
2023/06/28 08:25:51;;;;;;;4.28;1.30;;;25.90;39.40;;;;;;4985192;28;46024;-56
2023/06/28 08:28:17;;;;;;;4.82;1.10;;;25.90;39.40;;;;;;4988023;28;45207;-56
2023/06/28 08:30:42;;;;;;;2.08;1.02;;;25.90;39.40;;;;;;4974283;28;45666;-54
2023/06/28 08:33:08;;;;;;;2.17;1.30;;;25.90;39.40;;;;;;4989904;28;45158;-58
2023/06/28 08:35:34;;;;;;;5.25;1.38;;;26.00;39.40;;;;;;4963180;28;47528;-57
2023/06/28 08:37:59;;;;;;;3.28;1.02;;;26.00;39.40;;;;;;4984747;28;45376;-55
2023/06/28 08:40:27;;;;;;;3.00;1.17;;;25.90;39.30;;;;;;4982408;28;45521;-56
2023/06/28 08:42:53;;;;;;;4.22;1.10;;;26.00;39.30;;;;;;4990788;28;45686;-58
2023/06/28 08:45:19;;;;;;;3.10;1.08;;;26.00;39.20;;;;;;4956674;28;46009;-62
2023/06/28 08:47:44;;;;;;;2.25;0.95;;;26.00;39.20;;;;;;4965137;28;45478;-59
2023/06/28 08:50:10;;;;;;;2.35;0.98;;;26.00;39.10;;;;;;4981853;28;44919;-59
2023/06/28 08:52:36;;;;;;;1.92;1.02;;;26.10;39.00;;;;;;4986799;28;45393;-58
2023/06/28 08:55:03;;;;;;;2.75;0.90;;;26.10;38.80;;;;;;4977044;28;46283;-63
2023/06/28 08:57:29;;;;;;;2.65;0.90;;;26.10;38.80;;;;;;4957007;28;45513;-59
2023/06/28 08:59:54;;;;;;;1.92;0.77;;;26.10;38.70;;;;;;4967474;28;45435;-57
2023/06/28 09:02:20;;;;;;;1.77;0.80;;;26.10;38.50;;;;;;4951499;28;45268;-58
2023/06/28 09:04:47;;;;;;;2.70;1.08;;;26.10;38.60;;;;;;4973068;28;45586;-56
2023/06/28 09:07:14;;;;;;;1.58;1.20;;;26.10;38.50;;;;;;4981528;28;45232;-59
2023/06/28 09:09:40;;;;;;;2.65;0.90;;;26.20;38.40;;;;;;4968285;28;45183;-58
2023/06/28 09:12:06;;;;;;;0.88;0.70;;;26.20;38.40;;;;;;4970803;28;45367;-56
2023/06/28 09:14:31;;;;;;;1.48;0.73;;;26.20;38.40;;;;;;4941140;28;47110;-57
2023/06/28 09:16:57;;;;;;;2.15;0.90;;;26.20;38.30;;;;;;4979801;28;45416;-58
2023/06/28 09:19:22;;;;;;;2.40;1.00;;;26.20;38.40;;;;;;4986245;28;45360;-57
2023/06/28 09:21:48;;;;;;;2.50;1.10;;;26.20;38.30;;;;;;4980943;28;45412;-56
2023/06/28 09:24:13;;;;;;;2.28;1.00;;;26.20;38.30;;;;;;4987831;28;46471;-55
2023/06/28 09:26:41;;;;;;;3.03;1.33;;;26.20;38.20;;;;;;4987364;28;45561;-55
2023/06/28 09:29:11;;;;;;;4.32;1.58;;;26.20;38.40;;;;;;4972913;28;45983;-58
2023/06/28 09:31:44;;;;;;;3.20;1.45;;;26.20;38.00;;;;;;4969404;28;45152;-57
2023/06/28 09:34:10;;;;;;;6.18;1.25;;;26.20;37.80;;;;;;4990354;28;45647;-56
2023/06/28 09:36:38;;;;;;;3.15;0.85;;;26.20;38.00;;;;;;4982878;28;45589;-56
2023/06/28 09:39:04;;;;;;;3.10;0.90;;;26.20;37.90;;;;;;4972547;28;45899;-58
2023/06/28 09:41:42;;;;;;;2.08;0.90;;;26.20;37.80;;;;;;4976840;28;44936;-59
2023/06/28 09:44:11;;;;;;;2.13;0.95;;;26.20;37.50;;;;;;4987550;28;46139;-57
2023/06/28 09:46:46;;;;;;;1.83;0.75;;;26.20;37.50;;;;;;4958702;28;45587;-57
2023/06/28 09:49:22;;;;;;;3.25;0.82;;;26.30;37.30;;;;;;4969835;28;45262;-57
2023/06/28 09:52:03;;;;;;;1.30;0.60;;;26.30;37.20;;;;;;4989054;28;44780;-58
2023/06/28 09:54:33;;;;;;;1.02;0.68;;;26.30;37.10;;;;;;4976090;28;46111;-56
2023/06/28 09:56:59;;;;;;;2.70;1.10;;;26.30;37.20;;;;;;4990271;28;45239;-57
2023/06/28 09:59:27;;;;;;;1.35;0.80;;;26.30;36.90;;;;;;4991100;28;45148;-53
2023/06/28 10:01:53;;;;;;;2.10;0.80;;;26.30;36.40;;;;;;4982222;28;45840;-58
2023/06/28 10:04:19;;;;;;;3.83;1.00;;;26.30;36.30;;;;;;4962731;28;45300;-56
2023/06/28 10:06:45;;;;;;;1.35;0.77;;;26.30;36.10;;;;;;4974332;28;45832;-53
2023/06/28 10:09:15;;;;;;;2.28;0.90;;;26.30;36.80;;;;;;4960657;28;45407;-57
2023/06/28 10:11:40;;;;;;;1.85;0.68;;;26.30;36.00;;;;;;4966266;28;45304;-59
2023/06/28 10:14:06;;;;;;;2.55;0.77;;;26.30;36.00;;;;;;4966850;28;46054;-56
2023/06/28 10:16:35;;;;;;;2.03;0.80;;;26.40;35.90;;;;;;4967071;28;45421;-56
2023/06/28 10:19:00;;;;;;;1.35;0.70;;;26.40;35.60;;;;;;4991541;28;44921;-53
2023/06/28 10:21:27;;;;;;;2.65;1.08;;;26.40;35.60;;;;;;4971645;28;45364;-56
2023/06/28 10:23:52;;;;;;;1.20;0.80;;;26.40;35.50;;;;;;4993296;28;45435;-56
2023/06/28 10:26:18;;;;;;;2.80;0.88;;;26.40;35.50;;;;;;4968810;28;45406;-58
2023/06/28 10:28:43;;;;;;;1.25;0.70;;;26.40;35.20;;;;;;4976482;28;45333;-57
2023/06/28 10:31:09;;;;;;;1.02;0.52;;;26.50;35.30;;;;;;4983746;28;44820;-58
2023/06/28 10:33:37;;;;;;;2.58;0.80;;;26.50;35.40;;;;;;4961014;28;45657;-57
2023/06/28 10:36:03;;;;;;;1.95;1.05;;;26.50;35.10;;;;;;4985881;28;45234;-57
2023/06/28 10:38:33;;;;;;;2.92;0.77;;;26.50;35.00;;;;;;4974662;28;45673;-56
2023/06/28 10:41:02;;;;;;;1.42;0.73;;;26.50;34.80;;;;;;4974347;28;45188;-54
2023/06/28 10:43:28;;;;;;;3.58;1.02;;;26.40;34.90;;;;;;4975792;28;46126;-57
2023/06/28 10:45:53;;;;;;;3.78;0.88;;;26.50;34.90;;;;;;4971316;28;45472;-59
2023/06/28 10:48:23;;;;;;;2.55;0.90;;;26.40;34.80;;;;;;4966169;28;45499;-56
2023/06/28 10:50:49;;;;;;;2.17;0.80;;;26.50;34.80;;;;;;4970536;28;45145;-58
2023/06/28 10:53:23;;;;;;;2.75;0.90;;;26.50;34.80;;;;;;4980444;28;46015;-59
2023/06/28 10:56:03;;;;;;;2.75;0.82;;;26.50;34.50;;;;;;4987456;28;45398;-60
2023/06/28 10:58:30;;;;;;;2.67;1.00;;;26.50;34.50;;;;;;4996202;28;45024;-60
2023/06/28 11:00:56;;;;;;;1.58;0.80;;;26.50;34.80;;;;;;4955931;28;44910;-55
2023/06/28 11:03:23;;;;;;;1.45;0.80;;;26.60;34.80;;;;;;4991623;28;45400;-55
2023/06/28 11:05:48;;;;;;;1.85;0.98;;;26.60;34.80;;;;;;4991818;28;45377;-57
2023/06/28 11:08:15;;;;;;;1.58;0.80;;;26.60;34.90;;;;;;4974707;28;45218;-55
2023/06/28 11:10:54;;;;;;;1.58;0.80;;;26.60;34.80;;;;;;4991207;28;46149;-57
2023/06/28 11:13:49;;;;;;;1.52;0.90;;;26.60;34.40;;;;;;4991618;28;46098;-63
2023/06/28 11:16:22;;;;;;;1.52;1.00;;;26.70;34.50;;;;;;4978172;28;45310;-61
2023/06/28 11:18:49;;;;;;;1.67;0.85;;;26.70;34.40;;;;;;4993247;28;45590;-61
2023/06/28 11:21:15;;;;;;;1.63;0.85;;;26.70;34.60;;;;;;4989049;28;45296;-60
2023/06/28 11:23:42;;;;;;;2.30;0.90;;;26.70;34.70;;;;;;4991055;28;46124;-56
2023/06/28 11:26:12;;;;;;;1.45;0.80;;;26.70;34.70;;;;;;4969126;28;45724;-59
2023/06/28 11:28:45;;;;;;;4.13;0.95;;;26.70;34.60;;;;;;4992667;28;45750;-59
2023/06/28 11:31:15;;;;;;;;;;;26.70;34.60;;;;;;4960595;28;45036;-58
2023/06/28 11:33:41;;;;;;;1.83;0.63;;;26.70;34.00;;;;;;4991737;28;45980;-58
2023/06/28 11:36:07;;;;;;;2.53;0.77;;;26.80;34.60;;;;;;4984746;28;45588;-59
2023/06/28 11:38:32;;;;;;;6.18;1.60;;;26.80;34.40;;;;;;4972118;28;45289;-58
2023/06/28 11:40:59;;;;;;;1.85;0.90;;;26.80;34.40;;;;;;4975050;28;45207;-58
2023/06/28 11:43:24;;;;;;;1.38;0.77;;;26.80;34.50;;;;;;4973474;28;47256;-60
2023/06/28 11:45:50;;;;;;;1.60;0.77;;;26.80;34.40;;;;;;4979829;28;44776;-59
2023/06/28 11:48:17;;;;;;;1.45;1.00;;;26.80;34.40;;;;;;4975775;28;45318;-59
2023/06/28 11:50:42;;;;;;;2.30;0.85;;;26.80;34.40;;;;;;4988519;28;45218;-58
2023/06/28 11:53:08;;;;;;;1.42;0.80;;;26.90;34.50;;;;;;4994048;28;46053;-58
2023/06/28 11:55:33;;;;;;;4.82;1.00;;;26.90;34.50;;;;;;4981464;28;45695;-56
2023/06/28 11:57:59;;;;;;;3.10;1.17;;;26.90;34.40;;;;;;4993876;28;45772;-58
2023/06/28 12:00:30;;;;;;;1.23;0.90;;;26.90;34.50;;;;;;4967682;28;45576;-60
2023/06/28 12:02:56;;;;;;;3.97;0.95;;;26.90;34.60;;;;;;4975269;28;46259;-55
2023/06/28 12:05:21;;;;;;;1.50;0.93;;;26.90;34.60;;;;;;4987872;28;45555;-60
2023/06/28 12:07:47;;;;;;;3.00;0.90;;;26.90;34.60;;;;;;4975637;28;45300;-60
2023/06/28 12:10:13;;;;;;;1.70;0.80;;;26.90;34.70;;;;;;4969548;28;45461;-59
2023/06/28 12:12:39;;;;;;;3.58;0.82;;;26.90;34.70;;;;;;4972469;28;45873;-58
2023/06/28 12:15:12;;;;;;;2.03;0.90;;;27.00;34.70;;;;;;4973723;28;46439;-64
2023/06/28 12:17:42;;;;;;;3.17;0.80;;;27.00;34.50;;;;;;4987414;28;45408;-58
2023/06/28 12:20:08;;;;;;;2.08;0.80;;;27.00;34.60;;;;;;4988433;28;45644;-60
2023/06/28 12:22:45;;;;;;;2.88;0.98;;;27.00;34.80;;;;;;4978470;28;45453;-62
2023/06/28 12:25:11;;;;;;;2.92;0.90;;;27.10;34.60;;;;;;4987342;28;45346;-60
2023/06/28 12:27:38;;;;;;;1.77;1.00;;;27.00;34.60;;;;;;4991732;28;45480;-57
2023/06/28 12:30:11;;;;;;;1.85;0.95;;;27.00;34.40;;;;;;4986959;28;45293;-66
2023/06/28 12:32:44;;;;;;;;;;;27.10;34.20;;;;;;4985447;28;47004;-59
2023/06/28 12:35:23;;;;;;;1.63;0.70;;;27.10;33.80;;;;;;4991243;28;45117;-58
2023/06/28 12:37:58;;;;;;;1.83;0.90;;;27.10;34.10;;;;;;4989671;28;45815;-60
2023/06/28 12:40:33;;;;;;;2.30;1.17;;;27.10;33.80;;;;;;4981467;28;45319;-58
2023/06/28 12:43:11;;;;;;;2.63;0.90;;;27.20;33.80;;;;;;4990259;28;46232;-60
2023/06/28 12:45:51;;;;;;;3.63;1.15;;;27.20;33.70;;;;;;4979657;28;45497;-57
2023/06/28 12:48:17;;;;;;;4.20;1.00;;;27.20;33.80;;;;;;4985505;28;45325;-64
2023/06/28 12:50:44;;;;;;;2.67;0.80;;;27.20;34.00;;;;;;4981187;28;45577;-60
2023/06/28 12:53:09;;;;;;;3.20;1.20;;;27.20;34.10;;;;;;4988452;28;47032;-60
2023/06/28 12:55:35;;;;;;;0.63;0.60;;;27.20;34.10;;;;;;4985475;28;45503;-59
2023/06/28 12:58:00;;;;;;;1.75;0.90;;;27.20;34.20;;;;;;4977110;28;45246;-61
2023/06/28 13:00:26;;;;;;;0.88;0.70;;;27.30;34.30;;;;;;4980686;28;46065;-58
2023/06/28 13:02:52;;;;;;;5.63;1.20;;;27.30;34.30;;;;;;4972764;28;47037;-61
2023/06/28 13:05:19;;;;;;;2.40;0.80;;;27.30;34.30;;;;;;4988095;28;44952;-59
2023/06/28 13:07:45;;;;;;;2.25;1.05;;;27.30;34.20;;;;;;4987656;28;45958;-56
2023/06/28 13:10:11;;;;;;;2.85;1.00;;;27.30;34.90;;;;;;4985259;28;45416;-61
2023/06/28 13:12:36;;;;;;;3.75;0.63;;;27.40;34.10;;;;;;4984533;28;45972;-61
2023/06/28 13:15:03;;;;;;;1.90;1.00;;;27.40;33.90;;;;;;4992502;28;45357;-62
2023/06/28 13:17:28;;;;;;;3.47;0.68;;;27.40;34.10;;;;;;4952999;28;45247;-60
2023/06/28 13:19:54;;;;;;;1.65;0.90;;;27.40;33.70;;;;;;4992813;28;45136;-60
2023/06/28 13:22:19;;;;;;;1.98;1.00;;;27.50;33.70;;;;;;4986544;28;46031;-59
2023/06/28 13:24:45;;;;;;;0.95;0.80;;;27.50;33.60;;;;;;4986997;28;45213;-53
2023/06/28 13:27:10;;;;;;;2.15;0.77;;;27.50;33.30;;;;;;4985623;28;45219;-62
2023/06/28 13:29:36;;;;;;;1.55;0.75;;;27.60;33.40;;;;;;4987644;28;45263;-59
2023/06/28 13:32:02;;;;;;;2.38;1.05;;;27.60;33.20;;;;;;4980289;28;46404;-59
2023/06/28 13:34:27;;;;;;;1.50;0.82;;;27.70;33.00;;;;;;4987091;28;46023;-58
2023/06/28 13:36:52;;;;;;;2.63;0.90;;;27.70;32.90;;;;;;4983414;28;45973;-63
2023/06/28 13:39:18;;;;;;;1.88;0.80;;;27.70;32.90;;;;;;4983933;28;45481;-57
2023/06/28 13:41:43;;;;;;;1.88;0.70;;;27.70;32.90;;;;;;4985298;28;45884;-62
2023/06/28 13:44:09;;;;;;;0.65;0.65;;;27.70;32.90;;;;;;4991594;28;45498;-61
2023/06/28 13:46:35;;;;;;;1.20;0.70;;;27.70;32.90;;;;;;4975946;28;45625;-61
2023/06/28 13:49:00;;;;;;;3.03;1.08;;;27.70;32.90;;;;;;4991274;28;45520;-56
2023/06/28 13:51:26;;;;;;;2.95;0.63;;;27.70;32.80;;;;;;4979934;28;45886;-58
2023/06/28 13:53:53;;;;;;;4.05;1.00;;;27.80;32.80;;;;;;4985704;28;45476;-61
2023/06/28 13:56:18;;;;;;;1.15;0.90;;;27.80;33.30;;;;;;4979354;28;45587;-59
2023/06/28 13:58:44;;;;;;;1.65;0.63;;;27.80;32.50;;;;;;4986695;28;44778;-60
2023/06/28 14:01:09;;;;;;;4.10;0.80;;;27.80;32.40;;;;;;4975848;28;45360;-59
2023/06/28 14:03:35;;;;;;;2.17;1.08;;;27.90;32.60;;;;;;4985811;28;45209;-59
2023/06/28 14:06:01;;;;;;;1.08;0.75;;;27.90;32.60;;;;;;4965302;28;45293;-58
2023/06/28 14:08:27;;;;;;;1.90;0.80;;;27.90;32.40;;;;;;4986333;28;45241;-59
2023/06/28 14:10:53;;;;;;;1.80;0.80;;;27.90;32.50;;;;;;4975874;28;46013;-59
2023/06/28 14:13:18;;;;;;;3.85;0.90;;;27.90;32.30;;;;;;4982472;28;45640;-63
2023/06/28 14:15:44;;;;;;;3.95;1.08;;;27.90;32.40;;;;;;4954811;28;46201;-57
2023/06/28 14:18:10;;;;;;;2.70;0.95;;;27.90;32.30;;;;;;4984363;28;44728;-59
2023/06/28 14:20:36;;;;;;;2.33;0.85;;;27.90;32.30;;;;;;4974704;28;46216;-64
2023/06/28 14:23:01;;;;;;;1.33;0.77;;;27.90;32.10;;;;;;4984696;28;45649;-61
2023/06/28 14:25:27;;;;;;;2.22;0.90;;;27.90;32.10;;;;;;4982415;28;45632;-65
2023/06/28 14:27:53;;;;;;;4.72;1.10;;;28.00;32.30;;;;;;4986041;28;45475;-60
2023/06/28 14:30:24;;;;;;;3.92;0.90;;;28.00;32.30;;;;;;4978187;28;45892;-65
2023/06/28 14:32:50;;;;;;;1.10;0.52;;;28.00;32.20;;;;;;4977767;28;45753;-59
2023/06/28 14:35:16;;;;;;;2.00;0.68;;;28.10;32.20;;;;;;4969678;28;44745;-62
2023/06/28 14:37:43;;;;;;;1.75;0.70;;;28.10;32.00;;;;;;4986095;28;44781;-61
2023/06/28 14:40:09;;;;;;;3.38;0.82;;;28.10;31.90;;;;;;4965867;28;46033;-60
2023/06/28 14:42:35;;;;;;;0.77;0.68;;;28.10;31.80;;;;;;4986629;28;45735;-61
2023/06/28 14:45:00;;;;;;;1.60;0.93;;;28.10;31.60;;;;;;4990504;28;45396;-61
2023/06/28 14:47:26;;;;;;;2.22;1.00;;;28.20;31.80;;;;;;4980043;28;45137;-59
2023/06/28 14:49:51;;;;;;;2.13;0.70;;;28.20;31.60;;;;;;4986599;28;45982;-59
2023/06/28 14:52:17;;;;;;;1.38;0.85;;;28.20;31.60;;;;;;4977900;28;45316;-60
2023/06/28 14:54:42;;;;;;;1.17;0.70;;;28.20;31.30;;;;;;4989187;28;45382;-58
2023/06/28 14:57:08;;;;;;;1.52;0.75;;;28.20;31.30;;;;;;4986361;28;45986;-61
2023/06/28 14:59:33;;;;;;;1.98;0.80;;;28.20;31.40;;;;;;4992758;28;46493;-61
2023/06/28 15:01:59;;;;;;;1.05;0.82;;;28.20;31.20;;;;;;4961120;28;45293;-59
2023/06/28 15:04:25;;;;;;;2.17;0.90;;;28.30;31.10;;;;;;4987386;28;45423;-59
2023/06/28 15:06:51;;;;;;;1.83;0.75;;;28.30;30.90;;;;;;4985758;28;45627;-58
2023/06/28 15:09:16;;;;;;;0.93;0.63;;;28.20;30.80;;;;;;4989116;28;46878;-57
2023/06/28 15:11:42;;;;;;;0.85;0.60;;;28.30;30.80;;;;;;4964742;28;46293;-60
2023/06/28 15:14:08;;;;;;;1.58;0.63;;;28.30;30.80;;;;;;4989725;28;45322;-60
2023/06/28 15:16:35;;;;;;;0.98;0.70;;;28.30;30.70;;;;;;4961582;28;45352;-58
2023/06/28 15:19:04;;;;;;;0.85;0.70;;;28.30;30.70;;;;;;4967902;28;46131;-59
2023/06/28 15:21:30;;;;;;;1.00;0.80;;;28.30;30.50;;;;;;4964558;28;45254;-61
2023/06/28 15:23:55;;;;;;;1.60;0.80;;;28.30;30.60;;;;;;4979665;28;45393;-58
2023/06/28 15:26:21;;;;;;;1.48;0.60;;;28.30;30.70;;;;;;4968902;28;45520;-59
2023/06/28 15:28:47;;;;;;;1.50;0.70;;;28.30;30.70;;;;;;4985970;28;46214;-59
2023/06/28 15:31:12;;;;;;;1.17;0.65;;;28.30;30.70;;;;;;4974183;28;45379;-60
2023/06/28 15:33:38;;;;;;;1.73;0.80;;;28.30;30.50;;;;;;4984723;28;45383;-60
2023/06/28 15:36:03;;;;;;;2.10;1.10;;;28.30;30.50;;;;;;4978739;28;45257;-58
2023/06/28 15:38:29;;;;;;;2.20;0.68;;;28.40;30.50;;;;;;4984769;28;46127;-57
2023/06/28 15:40:54;;;;;;;2.10;0.88;;;28.40;30.50;;;;;;4979413;28;45040;-60
2023/06/28 15:43:21;;;;;;;0.80;0.70;;;28.40;30.50;;;;;;4983967;28;45486;-60
2023/06/28 15:45:47;;;;;;;2.38;0.85;;;28.40;30.50;;;;;;4960247;28;45651;-60